Mnichovice, Czech Republic

5:47 AM CET on February 08, 2016 (GMT +0100)
Laduv Kraj | | Change Station
CLOSE
Current Station
Personal Weather Station
Location: Mnichovice, Praha-vychod
Elevation: 1378 ft
Nearby Weather Stations

Elev 1378 ft 49.93 °N, 14.70 °E | Updated 18 seconds ago

Clear
Clear
41.7 °F
Feels Like 42 °F
N
1.0
Wind Variable Wind from SSW
Gusts 6.0 mph

Today
High -- | Low -- °F
--% Chance of Precip.
Yesterday
High -- | Low -- °F
Precip. -- in
Pressure 29.77 in
Visibility -9999.0 miles
Clouds
Windchill 42 °F
Dew Point 35 °F
Humidity 78%
Rainfall 0.00 in
Snow Depth Not available.
7:24 AM 5:06 PM
Waning Crescent, 0% visible
METAR LKPR 080430Z 20007KT CAVOK 05/00 Q1008 NOSIG
Pressure 29.77 in
Visibility -9999.0 miles
Clouds
Windchill 42 °F
Dew Point 35 °F
Humidity 78%
Rainfall 0.00 in
Snow Depth Not available.
7:24 AM 5:06 PM
Waning Crescent, 0% visible
METAR LKPR 080430Z 20007KT CAVOK 05/00 Q1008 NOSIG

10-Day Weather Forecast

Almanac

Astronomy

Feb. 08, 2016 Rise Set
Actual Time
Civil Twilight
Nautical Twilight
Astronomical Twilight
Moon
Length of Visible Light
Length of Day
Tomorrow will be .
, % of the Moon is Illuminated

Today's Extremes

Country Highs Country Lows

Community

WunderPhotos

Upload Photos

1,891,382 photos uploaded!

WunderBlog® & News

Nearby

Air Quality

  Air Quality AQ Index Pollutant
Not available.

Snow Depth

Station Depth Elevation

Earthquake Activity

City Distance Mag. Time & Date
Minimum magnitude displayed is 2.5.

Coastal Water Temperatures

Place Temperature

Stations

Nearby Weather Stations

Station Location Temp. Windchill Dew Point Humidity Wind Precip. Elev Updated Type